sensor_id;sensor_type;location;lat;lon;timestamp;P1;durP1;ratioP1;P2;durP2;ratioP2
21099;SDS011;10708;50.824;4.408;2023-03-02T00:01:26;114.35;;;107.25;;
21099;SDS011;10708;50.824;4.408;2023-03-02T00:06:32;133.95;;;125.82;;
21099;SDS011;10708;50.824;4.408;2023-03-02T00:11:38;267.83;;;252.53;;
21099;SDS011;10708;50.824;4.408;2023-03-02T00:16:40;336.90;;;318.25;;
21099;SDS011;10708;50.824;4.408;2023-03-02T00:21:42;369.83;;;349.08;;
21099;SDS011;10708;50.824;4.408;2023-03-02T00:26:46;262.80;;;247.48;;
21099;SDS011;10708;50.824;4.408;2023-03-02T00:31:48;285.85;;;268.77;;
21099;SDS011;10708;50.824;4.408;2023-03-02T00:36:51;238.07;;;224.47;;
21099;SDS011;10708;50.824;4.408;2023-03-02T00:41:54;288.45;;;271.70;;
21099;SDS011;10708;50.824;4.408;2023-03-02T00:46:57;282.35;;;266.33;;
21099;SDS011;10708;50.824;4.408;2023-03-02T00:51:59;258.05;;;243.13;;
21099;SDS011;10708;50.824;4.408;2023-03-02T00:57:03;157.90;;;148.70;;
21099;SDS011;10708;50.824;4.408;2023-03-02T01:02:05;139.75;;;131.23;;
21099;SDS011;10708;50.824;4.408;2023-03-02T01:07:09;135.52;;;127.55;;
21099;SDS011;10708;50.824;4.408;2023-03-02T01:12:14;156.85;;;147.15;;
21099;SDS011;10708;50.824;4.408;2023-03-02T01:17:16;147.70;;;138.87;;
21099;SDS011;10708;50.824;4.408;2023-03-02T01:22:19;135.88;;;127.55;;
21099;SDS011;10708;50.824;4.408;2023-03-02T01:27:23;140.80;;;132.40;;
21099;SDS011;10708;50.824;4.408;2023-03-02T01:32:26;125.45;;;118.05;;
21099;SDS011;10708;50.824;4.408;2023-03-02T01:37:28;125.80;;;118.30;;
21099;SDS011;10708;50.824;4.408;2023-03-02T01:42:35;117.93;;;110.33;;
21099;SDS011;10708;50.824;4.408;2023-03-02T01:47:39;225.80;;;212.20;;
21099;SDS011;10708;50.824;4.408;2023-03-02T01:52:42;233.95;;;219.90;;
21099;SDS011;10708;50.824;4.408;2023-03-02T01:57:46;269.65;;;254.18;;
21099;SDS011;10708;50.824;4.408;2023-03-02T02:02:50;332.92;;;313.25;;
21099;SDS011;10708;50.824;4.408;2023-03-02T02:07:55;210.75;;;197.70;;
21099;SDS011;10708;50.824;4.408;2023-03-02T02:12:59;199.73;;;187.13;;
21099;SDS011;10708;50.824;4.408;2023-03-02T02:18:02;389.85;;;365.83;;
21099;SDS011;10708;50.824;4.408;2023-03-02T02:23:08;346.17;;;326.37;;
21099;SDS011;10708;50.824;4.408;2023-03-02T02:28:20;243.40;;;229.88;;
21099;SDS011;10708;50.824;4.408;2023-03-02T02:33:26;213.02;;;201.05;;
21099;SDS011;10708;50.824;4.408;2023-03-02T02:38:28;304.90;;;287.20;;
21099;SDS011;10708;50.824;4.408;2023-03-02T02:43:34;373.80;;;351.90;;
21099;SDS011;10708;50.824;4.408;2023-03-02T02:48:36;396.35;;;373.27;;
21099;SDS011;10708;50.824;4.408;2023-03-02T02:53:42;371.70;;;350.70;;
21099;SDS011;10708;50.824;4.408;2023-03-02T02:58:50;403.35;;;379.95;;
21099;SDS011;10708;50.824;4.408;2023-03-02T03:03:55;340.00;;;320.83;;
21099;SDS011;10708;50.824;4.408;2023-03-02T03:08:59;421.60;;;397.35;;
21099;SDS011;10708;50.824;4.408;2023-03-02T03:14:04;466.37;;;439.00;;
21099;SDS011;10708;50.824;4.408;2023-03-02T03:19:10;398.73;;;375.67;;
21099;SDS011;10708;50.824;4.408;2023-03-02T03:24:17;286.33;;;270.13;;
21099;SDS011;10708;50.824;4.408;2023-03-02T03:29:22;186.38;;;175.90;;
21099;SDS011;10708;50.824;4.408;2023-03-02T03:34:26;95.67;;;89.77;;
21099;SDS011;10708;50.824;4.408;2023-03-02T03:39:30;98.83;;;92.90;;
21099;SDS011;10708;50.824;4.408;2023-03-02T03:44:34;160.57;;;151.43;;
21099;SDS011;10708;50.824;4.408;2023-03-02T03:49:37;179.57;;;169.20;;
21099;SDS011;10708;50.824;4.408;2023-03-02T03:54:39;286.23;;;270.50;;
21099;SDS011;10708;50.824;4.408;2023-03-02T03:59:43;375.08;;;354.10;;
21099;SDS011;10708;50.824;4.408;2023-03-02T04:04:45;445.13;;;419.65;;
21099;SDS011;10708;50.824;4.408;2023-03-02T04:09:48;442.52;;;417.20;;
21099;SDS011;10708;50.824;4.408;2023-03-02T04:15:05;370.85;;;349.83;;
21099;SDS011;10708;50.824;4.408;2023-03-02T04:20:10;382.80;;;360.23;;
21099;SDS011;10708;50.824;4.408;2023-03-02T04:25:16;371.67;;;349.48;;
21099;SDS011;10708;50.824;4.408;2023-03-02T04:30:23;340.95;;;320.52;;
21099;SDS011;10708;50.824;4.408;2023-03-02T04:35:26;329.38;;;310.40;;
21099;SDS011;10708;50.824;4.408;2023-03-02T04:40:29;183.88;;;172.57;;
21099;SDS011;10708;50.824;4.408;2023-03-02T04:45:33;105.82;;;99.55;;
21099;SDS011;10708;50.824;4.408;2023-03-02T04:50:35;124.25;;;116.85;;
21099;SDS011;10708;50.824;4.408;2023-03-02T04:55:38;140.35;;;132.23;;
21099;SDS011;10708;50.824;4.408;2023-03-02T05:00:42;156.80;;;146.77;;
21099;SDS011;10708;50.824;4.408;2023-03-02T05:05:44;117.63;;;110.65;;
21099;SDS011;10708;50.824;4.408;2023-03-02T05:10:46;108.07;;;101.65;;
21099;SDS011;10708;50.824;4.408;2023-03-02T05:15:50;100.10;;;93.70;;
21099;SDS011;10708;50.824;4.408;2023-03-02T05:20:53;101.97;;;95.93;;
21099;SDS011;10708;50.824;4.408;2023-03-02T05:25:56;126.07;;;118.77;;
21099;SDS011;10708;50.824;4.408;2023-03-02T05:31:00;138.88;;;130.60;;
21099;SDS011;10708;50.824;4.408;2023-03-02T05:36:03;138.80;;;130.65;;
21099;SDS011;10708;50.824;4.408;2023-03-02T05:41:05;128.10;;;120.70;;
21099;SDS011;10708;50.824;4.408;2023-03-02T05:46:09;119.73;;;112.57;;
21099;SDS011;10708;50.824;4.408;2023-03-02T05:51:12;113.65;;;106.95;;
21099;SDS011;10708;50.824;4.408;2023-03-02T05:56:14;154.57;;;145.60;;
21099;SDS011;10708;50.824;4.408;2023-03-02T06:01:18;154.07;;;145.20;;
21099;SDS011;10708;50.824;4.408;2023-03-02T06:06:20;146.37;;;137.87;;
21099;SDS011;10708;50.824;4.408;2023-03-02T06:11:23;181.73;;;171.32;;
21099;SDS011;10708;50.824;4.408;2023-03-02T06:16:27;154.90;;;145.80;;
21099;SDS011;10708;50.824;4.408;2023-03-02T06:21:30;118.78;;;111.78;;
21099;SDS011;10708;50.824;4.408;2023-03-02T06:26:33;141.48;;;133.43;;
21099;SDS011;10708;50.824;4.408;2023-03-02T06:31:39;160.40;;;151.30;;
21099;SDS011;10708;50.824;4.408;2023-03-02T06:36:41;200.65;;;189.63;;
21099;SDS011;10708;50.824;4.408;2023-03-02T06:41:44;187.55;;;176.95;;
21099;SDS011;10708;50.824;4.408;2023-03-02T06:46:49;192.98;;;182.05;;
21099;SDS011;10708;50.824;4.408;2023-03-02T06:51:51;266.67;;;252.05;;
21099;SDS011;10708;50.824;4.408;2023-03-02T06:56:54;222.68;;;210.57;;
21099;SDS011;10708;50.824;4.408;2023-03-02T07:01:59;210.68;;;198.73;;
21099;SDS011;10708;50.824;4.408;2023-03-02T07:07:01;157.57;;;148.38;;
21099;SDS011;10708;50.824;4.408;2023-03-02T07:12:04;212.07;;;200.23;;
21099;SDS011;10708;50.824;4.408;2023-03-02T07:17:08;237.00;;;223.35;;
21099;SDS011;10708;50.824;4.408;2023-03-02T07:22:11;148.85;;;139.98;;
21099;SDS011;10708;50.824;4.408;2023-03-02T07:27:13;287.77;;;271.25;;
21099;SDS011;10708;50.824;4.408;2023-03-02T07:32:17;112.43;;;105.20;;
21099;SDS011;10708;50.824;4.408;2023-03-02T07:37:20;157.98;;;148.32;;
21099;SDS011;10708;50.824;4.408;2023-03-02T07:42:22;136.63;;;128.50;;
21099;SDS011;10708;50.824;4.408;2023-03-02T07:47:26;157.77;;;148.32;;
21099;SDS011;10708;50.824;4.408;2023-03-02T07:52:29;265.95;;;250.88;;
21099;SDS011;10708;50.824;4.408;2023-03-02T07:57:31;381.67;;;359.67;;
21099;SDS011;10708;50.824;4.408;2023-03-02T08:02:35;380.67;;;358.70;;
21099;SDS011;10708;50.824;4.408;2023-03-02T08:07:37;384.93;;;362.60;;
21099;SDS011;10708;50.824;4.408;2023-03-02T08:12:40;398.77;;;375.63;;
21099;SDS011;10708;50.824;4.408;2023-03-02T08:17:45;385.23;;;362.77;;
21099;SDS011;10708;50.824;4.408;2023-03-02T08:22:47;443.92;;;417.17;;
21099;SDS011;10708;50.824;4.408;2023-03-02T08:27:49;456.67;;;429.15;;
21099;SDS011;10708;50.824;4.408;2023-03-02T08:32:53;443.65;;;417.25;;
21099;SDS011;10708;50.824;4.408;2023-03-02T08:37:55;357.52;;;337.25;;
21099;SDS011;10708;50.824;4.408;2023-03-02T08:42:59;323.00;;;305.13;;
21099;SDS011;10708;50.824;4.408;2023-03-02T08:48:03;338.88;;;319.92;;
21099;SDS011;10708;50.824;4.408;2023-03-02T08:53:06;334.60;;;315.20;;
21099;SDS011;10708;50.824;4.408;2023-03-02T08:58:08;384.58;;;362.75;;
21099;SDS011;10708;50.824;4.408;2023-03-02T09:03:11;453.35;;;426.50;;
21099;SDS011;10708;50.824;4.408;2023-03-02T09:08:14;448.40;;;421.30;;
21099;SDS011;10708;50.824;4.408;2023-03-02T09:13:16;503.50;;;472.88;;
21099;SDS011;10708;50.824;4.408;2023-03-02T09:18:20;498.93;;;467.73;;
21099;SDS011;10708;50.824;4.408;2023-03-02T09:23:22;519.93;;;487.73;;
21099;SDS011;10708;50.824;4.408;2023-03-02T09:28:26;502.67;;;471.67;;
21099;SDS011;10708;50.824;4.408;2023-03-02T09:33:29;475.93;;;447.10;;
21099;SDS011;10708;50.824;4.408;2023-03-02T09:38:32;459.45;;;432.25;;
21099;SDS011;10708;50.824;4.408;2023-03-02T09:43:38;322.88;;;304.60;;
21099;SDS011;10708;50.824;4.408;2023-03-02T09:49:02;324.17;;;305.52;;
21099;SDS011;10708;50.824;4.408;2023-03-02T09:54:16;332.25;;;313.20;;
21099;SDS011;10708;50.824;4.408;2023-03-02T09:59:25;336.13;;;316.80;;
21099;SDS011;10708;50.824;4.408;2023-03-02T10:04:31;285.90;;;269.95;;
21099;SDS011;10708;50.824;4.408;2023-03-02T10:09:39;294.15;;;277.42;;
21099;SDS011;10708;50.824;4.408;2023-03-02T10:14:44;292.13;;;275.63;;
21099;SDS011;10708;50.824;4.408;2023-03-02T10:19:55;266.63;;;251.27;;
21099;SDS011;10708;50.824;4.408;2023-03-02T10:25:05;326.45;;;307.15;;
21099;SDS011;10708;50.824;4.408;2023-03-02T10:30:18;297.63;;;280.17;;
21099;SDS011;10708;50.824;4.408;2023-03-02T10:35:28;363.92;;;342.58;;
21099;SDS011;10708;50.824;4.408;2023-03-02T10:40:37;375.40;;;353.33;;
21099;SDS011;10708;50.824;4.408;2023-03-02T10:45:42;322.63;;;303.90;;
21099;SDS011;10708;50.824;4.408;2023-03-02T10:50:51;344.30;;;324.10;;
21099;SDS011;10708;50.824;4.408;2023-03-02T10:55:54;360.13;;;339.02;;
21099;SDS011;10708;50.824;4.408;2023-03-02T11:00:57;294.88;;;277.63;;
21099;SDS011;10708;50.824;4.408;2023-03-02T11:06:14;275.73;;;260.02;;
21099;SDS011;10708;50.824;4.408;2023-03-02T11:11:20;226.90;;;213.85;;
21099;SDS011;10708;50.824;4.408;2023-03-02T11:16:24;280.23;;;264.35;;
21099;SDS011;10708;50.824;4.408;2023-03-02T11:21:32;253.32;;;237.88;;
21099;SDS011;10708;50.824;4.408;2023-03-02T11:26:37;304.88;;;287.70;;
21099;SDS011;10708;50.824;4.408;2023-03-02T11:31:45;369.20;;;347.87;;
21099;SDS011;10708;50.824;4.408;2023-03-02T11:37:00;341.90;;;322.20;;
21099;SDS011;10708;50.824;4.408;2023-03-02T11:42:14;321.60;;;303.60;;
21099;SDS011;10708;50.824;4.408;2023-03-02T11:47:21;382.40;;;359.25;;
21099;SDS011;10708;50.824;4.408;2023-03-02T11:52:25;303.15;;;285.40;;
21099;SDS011;10708;50.824;4.408;2023-03-02T11:57:31;270.92;;;255.40;;
21099;SDS011;10708;50.824;4.408;2023-03-02T12:02:37;222.60;;;209.85;;
21099;SDS011;10708;50.824;4.408;2023-03-02T12:07:41;257.13;;;242.73;;
21099;SDS011;10708;50.824;4.408;2023-03-02T12:12:46;298.63;;;281.70;;
21099;SDS011;10708;50.824;4.408;2023-03-02T12:18:00;262.90;;;247.25;;
21099;SDS011;10708;50.824;4.408;2023-03-02T12:23:08;279.13;;;262.92;;
21099;SDS011;10708;50.824;4.408;2023-03-02T12:28:26;425.83;;;399.75;;
21099;SDS011;10708;50.824;4.408;2023-03-02T12:33:30;300.98;;;284.02;;
21099;SDS011;10708;50.824;4.408;2023-03-02T12:38:34;567.28;;;530.10;;
21099;SDS011;10708;50.824;4.408;2023-03-02T12:43:40;421.20;;;395.20;;
21099;SDS011;10708;50.824;4.408;2023-03-02T12:48:49;489.30;;;458.93;;
21099;SDS011;10708;50.824;4.408;2023-03-02T12:54:03;459.20;;;431.08;;
21099;SDS011;10708;50.824;4.408;2023-03-02T12:59:15;477.80;;;447.90;;
21099;SDS011;10708;50.824;4.408;2023-03-02T13:04:23;490.53;;;460.03;;
21099;SDS011;10708;50.824;4.408;2023-03-02T13:09:28;489.27;;;459.03;;
21099;SDS011;10708;50.824;4.408;2023-03-02T13:14:31;499.47;;;468.60;;
21099;SDS011;10708;50.824;4.408;2023-03-02T13:19:33;417.48;;;392.40;;
21099;SDS011;10708;50.824;4.408;2023-03-02T13:24:44;459.38;;;431.20;;
21099;SDS011;10708;50.824;4.408;2023-03-02T13:29:49;427.65;;;401.90;;
21099;SDS011;10708;50.824;4.408;2023-03-02T13:34:53;445.65;;;418.38;;
21099;SDS011;10708;50.824;4.408;2023-03-02T13:39:58;417.05;;;391.48;;
21099;SDS011;10708;50.824;4.408;2023-03-02T13:45:20;462.95;;;434.08;;
21099;SDS011;10708;50.824;4.408;2023-03-02T13:50:24;365.20;;;343.48;;
21099;SDS011;10708;50.824;4.408;2023-03-02T13:55:30;292.70;;;275.50;;
21099;SDS011;10708;50.824;4.408;2023-03-02T14:00:34;222.90;;;210.02;;
21099;SDS011;10708;50.824;4.408;2023-03-02T14:05:36;212.43;;;200.05;;
21099;SDS011;10708;50.824;4.408;2023-03-02T14:10:40;222.30;;;209.30;;
21099;SDS011;10708;50.824;4.408;2023-03-02T14:15:45;298.25;;;280.98;;
21099;SDS011;10708;50.824;4.408;2023-03-02T14:20:50;300.80;;;283.65;;
21099;SDS011;10708;50.824;4.408;2023-03-02T14:25:54;326.63;;;307.33;;
21099;SDS011;10708;50.824;4.408;2023-03-02T14:30:57;225.10;;;212.07;;
21099;SDS011;10708;50.824;4.408;2023-03-02T14:36:00;210.60;;;198.23;;
21099;SDS011;10708;50.824;4.408;2023-03-02T14:41:05;279.30;;;263.15;;
21099;SDS011;10708;50.824;4.408;2023-03-02T14:46:08;294.08;;;276.80;;
21099;SDS011;10708;50.824;4.408;2023-03-02T14:51:13;291.60;;;274.77;;
21099;SDS011;10708;50.824;4.408;2023-03-02T14:56:22;273.73;;;257.87;;
21099;SDS011;10708;50.824;4.408;2023-03-02T15:01:24;293.42;;;276.33;;
21099;SDS011;10708;50.824;4.408;2023-03-02T15:06:28;266.55;;;251.48;;
21099;SDS011;10708;50.824;4.408;2023-03-02T15:11:33;279.70;;;264.00;;
21099;SDS011;10708;50.824;4.408;2023-03-02T15:16:36;303.50;;;286.23;;
21099;SDS011;10708;50.824;4.408;2023-03-02T15:21:38;390.67;;;368.40;;
21099;SDS011;10708;50.824;4.408;2023-03-02T15:26:45;459.77;;;432.35;;
21099;SDS011;10708;50.824;4.408;2023-03-02T15:31:48;426.65;;;402.33;;
21099;SDS011;10708;50.824;4.408;2023-03-02T15:36:50;454.95;;;428.13;;
21099;SDS011;10708;50.824;4.408;2023-03-02T15:41:54;388.87;;;366.40;;
21099;SDS011;10708;50.824;4.408;2023-03-02T15:46:57;459.60;;;432.63;;
21099;SDS011;10708;50.824;4.408;2023-03-02T15:52:01;487.45;;;458.10;;
21099;SDS011;10708;50.824;4.408;2023-03-02T15:57:05;403.50;;;380.10;;
21099;SDS011;10708;50.824;4.408;2023-03-02T16:02:09;453.63;;;426.95;;
21099;SDS011;10708;50.824;4.408;2023-03-02T16:07:12;452.30;;;425.52;;
21099;SDS011;10708;50.824;4.408;2023-03-02T16:12:16;474.52;;;445.83;;
21099;SDS011;10708;50.824;4.408;2023-03-02T16:17:22;506.83;;;475.97;;
21099;SDS011;10708;50.824;4.408;2023-03-02T16:22:25;480.20;;;451.48;;
21099;SDS011;10708;50.824;4.408;2023-03-02T16:27:29;461.88;;;434.15;;
21099;SDS011;10708;50.824;4.408;2023-03-02T16:32:31;536.60;;;503.20;;
21099;SDS011;10708;50.824;4.408;2023-03-02T16:37:34;524.38;;;491.88;;
21099;SDS011;10708;50.824;4.408;2023-03-02T16:42:38;570.20;;;533.47;;
21099;SDS011;10708;50.824;4.408;2023-03-02T16:47:41;549.07;;;513.83;;
21099;SDS011;10708;50.824;4.408;2023-03-02T16:52:44;510.58;;;478.15;;
21099;SDS011;10708;50.824;4.408;2023-03-02T16:57:48;412.37;;;388.07;;
21099;SDS011;10708;50.824;4.408;2023-03-02T17:02:50;406.60;;;383.33;;
21099;SDS011;10708;50.824;4.408;2023-03-02T17:07:54;374.27;;;352.43;;
21099;SDS011;10708;50.824;4.408;2023-03-02T17:12:59;380.90;;;359.37;;
21099;SDS011;10708;50.824;4.408;2023-03-02T17:18:02;368.63;;;347.60;;
21099;SDS011;10708;50.824;4.408;2023-03-02T17:23:05;476.88;;;447.27;;
21099;SDS011;10708;50.824;4.408;2023-03-02T17:28:09;454.45;;;426.83;;
21099;SDS011;10708;50.824;4.408;2023-03-02T17:33:12;559.40;;;523.63;;
21099;SDS011;10708;50.824;4.408;2023-03-02T17:38:14;521.67;;;489.20;;
21099;SDS011;10708;50.824;4.408;2023-03-02T17:43:18;539.33;;;505.55;;
21099;SDS011;10708;50.824;4.408;2023-03-02T17:48:20;506.27;;;474.90;;
21099;SDS011;10708;50.824;4.408;2023-03-02T17:53:25;488.15;;;458.58;;
21099;SDS011;10708;50.824;4.408;2023-03-02T17:58:29;537.13;;;503.65;;
21099;SDS011;10708;50.824;4.408;2023-03-02T18:03:31;517.85;;;485.90;;
21099;SDS011;10708;50.824;4.408;2023-03-02T18:08:34;485.08;;;455.42;;
21099;SDS011;10708;50.824;4.408;2023-03-02T18:13:38;541.17;;;507.58;;
21099;SDS011;10708;50.824;4.408;2023-03-02T18:18:41;535.63;;;502.45;;
21099;SDS011;10708;50.824;4.408;2023-03-02T18:23:43;487.80;;;457.98;;
21099;SDS011;10708;50.824;4.408;2023-03-02T18:28:47;438.25;;;411.63;;
21099;SDS011;10708;50.824;4.408;2023-03-02T18:33:50;358.42;;;337.40;;
21099;SDS011;10708;50.824;4.408;2023-03-02T18:38:54;274.13;;;258.55;;
21099;SDS011;10708;50.824;4.408;2023-03-02T18:43:58;302.40;;;285.42;;
21099;SDS011;10708;50.824;4.408;2023-03-02T18:49:00;272.77;;;257.33;;
21099;SDS011;10708;50.824;4.408;2023-03-02T18:54:05;265.83;;;250.63;;
21099;SDS011;10708;50.824;4.408;2023-03-02T18:59:08;350.15;;;329.33;;
21099;SDS011;10708;50.824;4.408;2023-03-02T19:04:12;248.23;;;233.90;;
21099;SDS011;10708;50.824;4.408;2023-03-02T19:09:15;310.50;;;292.45;;
21099;SDS011;10708;50.824;4.408;2023-03-02T19:14:19;300.97;;;284.07;;
21099;SDS011;10708;50.824;4.408;2023-03-02T19:19:21;348.20;;;328.27;;
21099;SDS011;10708;50.824;4.408;2023-03-02T19:24:23;397.13;;;374.65;;
21099;SDS011;10708;50.824;4.408;2023-03-02T19:29:27;425.13;;;400.45;;
21099;SDS011;10708;50.824;4.408;2023-03-02T19:34:29;439.67;;;413.52;;
21099;SDS011;10708;50.824;4.408;2023-03-02T19:39:32;448.67;;;421.48;;
21099;SDS011;10708;50.824;4.408;2023-03-02T19:44:35;428.52;;;403.08;;
21099;SDS011;10708;50.824;4.408;2023-03-02T19:49:38;437.87;;;411.73;;
21099;SDS011;10708;50.824;4.408;2023-03-02T19:54:40;381.58;;;359.08;;
21099;SDS011;10708;50.824;4.408;2023-03-02T19:59:44;444.45;;;417.70;;
21099;SDS011;10708;50.824;4.408;2023-03-02T20:04:47;621.45;;;579.05;;
21099;SDS011;10708;50.824;4.408;2023-03-02T20:09:50;579.08;;;540.60;;
21099;SDS011;10708;50.824;4.408;2023-03-02T20:14:54;562.47;;;525.90;;
21099;SDS011;10708;50.824;4.408;2023-03-02T20:19:56;608.23;;;567.97;;
21099;SDS011;10708;50.824;4.408;2023-03-02T20:25:01;609.47;;;568.05;;
21099;SDS011;10708;50.824;4.408;2023-03-02T20:30:07;520.05;;;484.48;;
21099;SDS011;10708;50.824;4.408;2023-03-02T20:35:11;474.20;;;443.20;;
21099;SDS011;10708;50.824;4.408;2023-03-02T20:40:15;418.35;;;392.17;;
21099;SDS011;10708;50.824;4.408;2023-03-02T20:45:19;358.90;;;338.10;;
21099;SDS011;10708;50.824;4.408;2023-03-02T20:50:24;396.05;;;372.52;;
21099;SDS011;10708;50.824;4.408;2023-03-02T20:55:28;489.40;;;458.30;;
21099;SDS011;10708;50.824;4.408;2023-03-02T21:00:33;448.77;;;420.02;;
21099;SDS011;10708;50.824;4.408;2023-03-02T21:05:37;524.67;;;490.40;;
21099;SDS011;10708;50.824;4.408;2023-03-02T21:10:41;569.35;;;531.25;;
21099;SDS011;10708;50.824;4.408;2023-03-02T21:15:45;657.20;;;611.55;;
21099;SDS011;10708;50.824;4.408;2023-03-02T21:20:48;619.53;;;577.20;;
21099;SDS011;10708;50.824;4.408;2023-03-02T21:25:50;637.42;;;592.80;;
21099;SDS011;10708;50.824;4.408;2023-03-02T21:30:55;633.58;;;590.55;;
21099;SDS011;10708;50.824;4.408;2023-03-02T21:35:57;550.00;;;513.03;;
21099;SDS011;10708;50.824;4.408;2023-03-02T21:40:59;501.40;;;469.47;;
21099;SDS011;10708;50.824;4.408;2023-03-02T21:46:03;649.00;;;603.03;;
21099;SDS011;10708;50.824;4.408;2023-03-02T21:51:06;176.68;;;165.55;;
21099;SDS011;10708;50.824;4.408;2023-03-02T21:56:09;341.40;;;319.65;;
21099;SDS011;10708;50.824;4.408;2023-03-02T22:01:22;312.75;;;292.08;;
21099;SDS011;10708;50.824;4.408;2023-03-02T22:06:26;403.25;;;375.15;;
21099;SDS011;10708;50.824;4.408;2023-03-02T22:11:33;675.35;;;625.80;;
21099;SDS011;10708;50.824;4.408;2023-03-02T22:16:38;580.55;;;538.53;;
21099;SDS011;10708;50.824;4.408;2023-03-02T22:21:42;767.65;;;706.78;;
21099;SDS011;10708;50.824;4.408;2023-03-02T22:26:48;766.25;;;707.90;;
21099;SDS011;10708;50.824;4.408;2023-03-02T22:32:05;824.35;;;759.00;;
21099;SDS011;10708;50.824;4.408;2023-03-02T22:37:15;673.65;;;626.95;;
21099;SDS011;10708;50.824;4.408;2023-03-02T22:42:20;782.70;;;723.20;;
21099;SDS011;10708;50.824;4.408;2023-03-02T22:47:25;878.55;;;809.35;;
21099;SDS011;10708;50.824;4.408;2023-03-02T22:52:29;705.10;;;651.72;;
21099;SDS011;10708;50.824;4.408;2023-03-02T22:57:38;743.55;;;689.85;;
21099;SDS011;10708;50.824;4.408;2023-03-02T23:02:44;883.80;;;811.50;;
21099;SDS011;10708;50.824;4.408;2023-03-02T23:07:47;874.60;;;802.38;;
21099;SDS011;10708;50.824;4.408;2023-03-02T23:12:49;771.07;;;711.50;;
21099;SDS011;10708;50.824;4.408;2023-03-02T23:17:53;903.35;;;832.47;;
21099;SDS011;10708;50.824;4.408;2023-03-02T23:22:58;840.83;;;768.90;;
21099;SDS011;10708;50.824;4.408;2023-03-02T23:28:02;711.35;;;662.00;;
21099;SDS011;10708;50.824;4.408;2023-03-02T23:33:06;676.78;;;628.50;;
21099;SDS011;10708;50.824;4.408;2023-03-02T23:38:08;642.55;;;598.83;;
21099;SDS011;10708;50.824;4.408;2023-03-02T23:43:10;606.97;;;567.03;;
21099;SDS011;10708;50.824;4.408;2023-03-02T23:48:14;529.15;;;495.88;;
21099;SDS011;10708;50.824;4.408;2023-03-02T23:53:16;606.97;;;564.95;;
21099;SDS011;10708;50.824;4.408;2023-03-02T23:58:18;848.80;;;780.67;;
